Portada
METAR-TAF:

METAR-TAF

Aeroports :

Bordeus, França

latitud: 44-50N, longitud: 000-42W, altitud: 49 m

Observació

L'informe es va fer fa 36 minuts, a les 19:00 UTC
Vent 10 kt del Nord-Est
Temperatura 9°C
Humitat 71%
Pressió 1022 hPa
Visibilitat 10 km o més
Cel cobert a una alçada de 3400 ft

METAR: LFBD 051900Z AUTO 04010KT 9999 OVC034 09/04 Q1022 NOSIG

Hora: 20:36 (19:36 UTC)

Pronòstic

L'informe es va fer fa 2 hores i 36 minuts, a les 17:00 UTC
Pronòstic vàlid del 05 a les 18 UTC al 06 a les 24 UTC
Vent 10 kt del Nord/Nord-Est
Visibilitat 10 km o més
Cel ennuvolat a una alçada de 4000 ft
Evolucionant progressivament
l' 05 a les 18 UTC al 05 a les 21 UTC
Visibilitat 10 km o més
sense núvols per sota de 1500 mi sense presència de cumulonimbus.
Evolucionant progressivament
l' 06 a les 19 UTC al 06 a les 21 UTC
Vent 5 kt del Sud/Sud-Oest

TAF: LFBD 051700Z 0518/0624 03010KT 9999 BKN040 TX13/0614Z TN02/0606Z BECMG 0518/0521 CAVOK BECMG 0619/0621 21005KT

Observacions i pronòstics meteorològics de més de 4000 aeroports (METAR i TAF).

Les estacions disponibles són els punts grocs i vermells al mapa.

Posi el ratolí al punt desitjat per veure el nom de l'estació.

Feu clic per veure les observacions i els pronòstics meteorològics.

Per canviar el mapa: feu clic els botons verds amb una creu de color negre per apropar; al botó verd amb un guió per allunyar la imatge; o en les fletxes verdes per a mapes adjacents.


METAR-TAF: